Time;durP1;ratioP1;P1;durP2;ratioP2;P2;SDS_P1;SDS_P2;PMS_P1;PMS_P2;Temp;Humidity;BMP_temperature;BMP_pressure;BME280_temperature;BME280_humidity;BME280_pressure;Samples;Min_cycle;Max_cycle;Signal;HPM_P1;HPM_P2
2022/07/25 00:00:28;;;;;;;2.88;1.80;;;25.10;59.10;;;;;;4508618;31;20089;-69
2022/07/25 00:02:54;;;;;;;2.22;2.03;;;25.10;59.20;;;;;;4508699;31;20085;-69
2022/07/25 00:05:20;;;;;;;2.60;2.00;;;25.10;59.20;;;;;;4509056;31;20089;-69
2022/07/25 00:07:46;;;;;;;3.95;2.00;;;25.10;59.20;;;;;;4509064;31;20072;-69
2022/07/25 00:10:15;;;;;;;2.15;1.75;;;25.10;59.20;;;;;;4508963;31;20127;-68
2022/07/25 00:12:41;;;;;;;2.22;1.70;;;25.10;60.10;;;;;;4494528;31;20077;-69
2022/07/25 00:15:07;;;;;;;2.95;2.00;;;25.10;59.10;;;;;;4508683;31;20457;-69
2022/07/25 00:17:33;;;;;;;2.30;1.80;;;25.10;59.10;;;;;;4508658;31;20215;-69
2022/07/25 00:20:00;;;;;;;1.80;1.60;;;25.10;59.20;;;;;;4508394;31;20409;-69
2022/07/25 00:22:25;;;;;;;2.17;1.50;;;25.10;59.20;;;;;;4508706;31;20097;-69
2022/07/25 00:24:51;;;;;;;2.35;1.85;;;25.10;59.20;;;;;;4508574;31;20414;-69
2022/07/25 00:27:17;;;;;;;2.00;1.80;;;25.10;59.20;;;;;;4508734;31;20627;-69
2022/07/25 00:29:43;;;;;;;3.08;2.00;;;25.10;59.20;;;;;;4508243;31;20061;-69
2022/07/25 00:32:09;;;;;;;1.73;1.58;;;25.10;59.20;;;;;;4508049;31;20146;-69
2022/07/25 00:34:35;;;;;;;1.83;1.70;;;25.10;59.20;;;;;;4508362;31;20620;-69
2022/07/25 00:37:01;;;;;;;1.90;1.70;;;25.10;59.20;;;;;;4508398;31;20083;-69
2022/07/25 00:39:27;;;;;;;3.05;1.90;;;25.10;59.20;;;;;;4494039;31;20096;-69
2022/07/25 00:41:54;;;;;;;2.17;1.70;;;25.00;59.10;;;;;;4508554;31;20189;-69
2022/07/25 00:44:30;;;;;;;3.05;1.70;;;25.00;59.10;;;;;;4494010;31;20471;-69
2022/07/25 00:46:56;;;;;;;2.78;2.05;;;25.00;59.10;;;;;;4508638;31;20065;-69
2022/07/25 00:49:23;;;;;;;2.30;1.70;;;25.00;59.10;;;;;;4508423;31;20077;-69
2022/07/25 00:51:50;;;;;;;1.98;1.75;;;25.00;59.20;;;;;;4507993;31;20165;-69
2022/07/25 00:54:16;;;;;;;1.50;1.40;;;25.00;59.20;;;;;;4508225;31;20506;-69
2022/07/25 00:56:42;;;;;;;1.88;1.60;;;25.00;59.20;;;;;;4508222;31;20088;-69
2022/07/25 00:59:09;;;;;;;3.22;2.38;;;25.00;59.10;;;;;;4508165;31;20563;-69
2022/07/25 01:01:36;;;;;;;2.13;1.70;;;25.00;59.10;;;;;;4508066;31;20073;-69
2022/07/25 01:04:02;;;;;;;3.58;2.03;;;25.00;59.20;;;;;;4507924;31;20103;-69
2022/07/25 01:06:28;;;;;;;2.63;1.67;;;25.00;59.20;;;;;;4508013;31;20227;-69
2022/07/25 01:08:54;;;;;;;2.08;1.88;;;25.00;59.10;;;;;;4507638;31;20073;-69
2022/07/25 01:11:21;;;;;;;2.20;1.90;;;25.00;59.20;;;;;;4507937;31;20203;-69
2022/07/25 01:13:47;;;;;;;1.63;1.52;;;25.00;59.20;;;;;;4507728;31;20085;-69
2022/07/25 01:16:13;;;;;;;2.53;1.70;;;25.00;59.20;;;;;;4507936;31;20064;-69
2022/07/25 01:18:39;;;;;;;1.70;1.58;;;25.00;59.10;;;;;;4507904;31;20516;-69
2022/07/25 01:21:05;;;;;;;2.13;1.52;;;25.00;59.10;;;;;;4507841;31;20080;-69
2022/07/25 01:23:31;;;;;;;2.35;1.63;;;25.00;59.10;;;;;;4507894;31;20546;-69
2022/07/25 01:25:57;;;;;;;2.78;1.73;;;25.00;59.20;;;;;;4507833;31;20211;-69
2022/07/25 01:28:22;;;;;;;2.20;1.73;;;25.00;59.10;;;;;;4508028;31;20526;-69
2022/07/25 01:30:48;;;;;;;1.50;1.40;;;25.00;59.10;;;;;;4507808;31;20053;-69
2022/07/25 01:33:16;;;;;;;1.90;1.65;;;25.00;59.10;;;;;;4507700;31;20412;-69
2022/07/25 01:35:42;;;;;;;1.65;1.55;;;25.00;59.20;;;;;;4493597;31;20161;-69
2022/07/25 01:38:08;;;;;;;1.83;1.73;;;25.00;60.00;;;;;;4507729;31;20085;-69
2022/07/25 01:40:34;;;;;;;1.85;1.58;;;25.00;59.10;;;;;;4507703;31;20080;-70
2022/07/25 01:43:00;;;;;;;2.75;1.75;;;25.00;59.20;;;;;;4507914;31;20091;-69
2022/07/25 01:45:26;;;;;;;2.80;1.77;;;25.00;59.20;;;;;;4507659;31;20402;-69
2022/07/25 01:47:52;;;;;;;2.95;1.70;;;25.00;59.20;;;;;;4493594;31;20057;-69
2022/07/25 01:50:18;;;;;;;1.70;1.60;;;25.00;59.30;;;;;;4493389;31;20453;-69
2022/07/25 01:52:44;;;;;;;3.13;1.67;;;25.00;59.30;;;;;;4507716;31;20090;-69
2022/07/25 01:55:10;;;;;;;2.20;1.70;;;25.00;59.30;;;;;;4493379;31;20073;-69
2022/07/25 01:57:38;;;;;;;3.05;1.58;;;25.00;59.30;;;;;;4507861;31;20072;-69
2022/07/25 02:00:10;;;;;;;2.00;1.80;;;25.00;59.30;;;;;;4507608;31;20081;-69
2022/07/25 02:02:36;;;;;;;1.65;1.55;;;25.00;59.30;;;;;;4508822;31;20072;-69
2022/07/25 02:05:02;;;;;;;1.50;1.33;;;25.00;59.30;;;;;;4510597;31;20065;-69
2022/07/25 02:07:28;;;;;;;1.73;1.63;;;25.00;59.40;;;;;;4510848;31;20124;-69
2022/07/25 02:09:53;;;;;;;1.70;1.60;;;25.00;59.30;;;;;;4510328;31;20095;-69
2022/07/25 02:12:19;;;;;;;2.10;1.75;;;25.00;59.30;;;;;;4510546;31;20119;-69
2022/07/25 02:14:45;;;;;;;1.80;1.63;;;25.00;59.30;;;;;;4510226;31;20061;-69
2022/07/25 02:17:11;;;;;;;1.50;1.40;;;25.00;59.30;;;;;;4510792;31;20115;-69
2022/07/25 02:19:37;;;;;;;1.70;1.60;;;25.00;59.30;;;;;;4510176;31;20153;-69
2022/07/25 02:22:03;;;;;;;1.80;1.67;;;25.00;59.20;;;;;;4510471;31;20083;-69
2022/07/25 02:24:29;;;;;;;1.50;1.40;;;25.00;59.20;;;;;;4510395;31;20069;-69
2022/07/25 02:26:55;;;;;;;2.05;1.70;;;25.00;59.30;;;;;;4510101;31;20498;-69
2022/07/25 02:29:21;;;;;;;1.50;1.40;;;25.00;59.30;;;;;;4510457;31;20142;-69
2022/07/25 02:31:46;;;;;;;1.48;1.38;;;25.00;59.30;;;;;;4509846;31;20524;-69
2022/07/25 02:34:12;;;;;;;3.60;1.80;;;24.90;59.20;;;;;;4509878;31;20084;-69
2022/07/25 02:36:38;;;;;;;2.25;1.73;;;24.90;59.20;;;;;;4510162;31;20249;-69
2022/07/25 02:39:04;;;;;;;1.70;1.60;;;24.90;59.20;;;;;;4495915;31;20132;-69
2022/07/25 02:41:30;;;;;;;2.03;1.60;;;24.90;59.20;;;;;;4509877;31;20076;-70
2022/07/25 02:43:56;;;;;;;1.80;1.50;;;24.90;59.20;;;;;;4510023;31;20085;-69
2022/07/25 02:46:22;;;;;;;2.30;1.75;;;25.00;59.30;;;;;;4510075;31;20079;-69
2022/07/25 02:48:48;;;;;;;2.15;1.83;;;24.90;59.30;;;;;;4509899;31;20549;-69
2022/07/25 02:51:14;;;;;;;2.20;1.70;;;24.90;59.30;;;;;;4510190;31;20092;-70
2022/07/25 02:53:39;;;;;;;1.65;1.42;;;24.90;59.30;;;;;;4509951;31;20158;-69
2022/07/25 02:56:05;;;;;;;2.22;1.70;;;24.90;59.30;;;;;;4509863;31;20076;-69
2022/07/25 02:58:31;;;;;;;2.13;1.60;;;24.90;59.30;;;;;;4509882;31;20081;-69
2022/07/25 03:00:57;;;;;;;2.03;1.70;;;24.90;59.30;;;;;;4509802;31;20085;-69
2022/07/25 03:03:23;;;;;;;1.70;1.60;;;24.90;59.30;;;;;;4510079;31;20061;-69
2022/07/25 03:05:49;;;;;;;2.00;1.70;;;24.90;59.30;;;;;;4509942;31;20463;-69
2022/07/25 03:08:14;;;;;;;1.60;1.50;;;24.90;59.30;;;;;;4509941;31;20065;-69
2022/07/25 03:10:40;;;;;;;1.67;1.42;;;24.90;59.30;;;;;;4509682;31;20440;-69
2022/07/25 03:13:06;;;;;;;1.65;1.52;;;24.90;59.40;;;;;;4509825;31;20057;-69
2022/07/25 03:15:32;;;;;;;2.35;1.63;;;24.90;59.30;;;;;;4509638;31;20072;-69
2022/07/25 03:17:58;;;;;;;1.55;1.38;;;24.90;59.30;;;;;;4509601;31;20135;-69
2022/07/25 03:20:24;;;;;;;4.65;1.60;;;24.90;59.40;;;;;;4495304;31;20084;-69
2022/07/25 03:22:49;;;;;;;1.50;1.40;;;24.90;59.40;;;;;;4509585;31;20104;-69
2022/07/25 03:25:15;;;;;;;2.90;1.58;;;24.90;59.30;;;;;;4509258;31;20072;-69
2022/07/25 03:27:41;;;;;;;1.60;1.50;;;24.90;59.40;;;;;;4494972;31;20135;-69
2022/07/25 03:30:08;;;;;;;1.70;1.58;;;24.90;59.40;;;;;;4509443;31;20400;-69
2022/07/25 03:32:33;;;;;;;1.63;1.52;;;24.90;59.30;;;;;;4509232;31;20193;-69
2022/07/25 03:35:00;;;;;;;2.35;1.33;;;24.90;59.40;;;;;;4495327;31;20189;-69
2022/07/25 03:37:26;;;;;;;1.75;1.42;;;24.90;59.30;;;;;;4509336;31;20506;-69
2022/07/25 03:39:52;;;;;;;2.00;1.42;;;24.80;60.20;;;;;;4509531;31;20181;-69
2022/07/25 03:42:18;;;;;;;1.40;1.30;;;24.90;59.40;;;;;;4494994;31;20124;-68
2022/07/25 03:44:44;;;;;;;1.95;1.55;;;24.90;59.40;;;;;;4509541;31;20076;-69
2022/07/25 03:47:10;;;;;;;1.60;1.50;;;24.90;59.40;;;;;;4509210;31;20088;-69
2022/07/25 03:49:36;;;;;;;1.60;1.50;;;24.80;59.30;;;;;;4509141;31;20083;-69
2022/07/25 03:52:02;;;;;;;2.00;1.60;;;24.80;59.30;;;;;;4509156;31;20092;-69
2022/07/25 03:54:28;;;;;;;1.63;1.45;;;24.80;59.30;;;;;;4494619;31;20202;-69
2022/07/25 03:56:54;;;;;;;1.65;1.40;;;24.80;59.40;;;;;;4509067;31;20079;-68
2022/07/25 03:59:20;;;;;;;2.63;1.50;;;24.80;59.30;;;;;;4508983;31;20177;-69
2022/07/25 04:01:48;;;;;;;1.60;1.50;;;24.80;59.30;;;;;;4508949;31;20198;-69
2022/07/25 04:04:14;;;;;;;1.70;1.33;;;24.80;59.30;;;;;;4508863;31;20084;-69
2022/07/25 04:06:40;;;;;;;1.75;1.50;;;24.80;59.40;;;;;;4508840;31;20397;-69
2022/07/25 04:09:07;;;;;;;2.35;1.80;;;24.80;59.30;;;;;;4508507;31;20060;-69
2022/07/25 04:11:34;;;;;;;2.05;1.42;;;24.80;59.30;;;;;;4508818;31;20077;-69
2022/07/25 04:14:04;;;;;;;1.50;1.40;;;24.80;59.40;;;;;;4509030;31;20092;-68
2022/07/25 04:16:30;;;;;;;1.67;1.48;;;24.80;59.40;;;;;;4508407;31;20132;-69
2022/07/25 04:18:56;;;;;;;1.45;1.35;;;24.80;59.40;;;;;;4508981;31;20075;-69
2022/07/25 04:21:22;;;;;;;1.30;1.20;;;24.80;59.40;;;;;;4508707;31;20123;-69
2022/07/25 04:23:48;;;;;;;2.67;1.60;;;24.80;59.40;;;;;;4508320;31;20116;-69
2022/07/25 04:26:15;;;;;;;1.73;1.30;;;24.80;59.40;;;;;;4508251;31;20398;-72
2022/07/25 04:28:41;;;;;;;3.45;1.30;;;24.80;59.40;;;;;;4508172;31;20529;-68
2022/07/25 04:31:07;;;;;;;1.92;1.63;;;24.80;59.50;;;;;;4494215;31;20215;-68
2022/07/25 04:33:36;;;;;;;1.83;1.73;;;24.80;59.60;;;;;;4508317;31;20064;-68
2022/07/25 04:36:02;;;;;;;2.85;2.13;;;24.80;59.70;;;;;;4508332;31;20171;-68
2022/07/25 04:38:28;;;;;;;2.20;2.00;;;24.80;59.90;;;;;;4508372;31;20116;-68
2022/07/25 04:40:54;;;;;;;2.30;2.10;;;24.80;60.00;;;;;;4508312;31;20080;-68
2022/07/25 04:43:20;;;;;;;3.47;2.25;;;24.80;60.00;;;;;;4508241;31;20174;-68
2022/07/25 04:45:47;;;;;;;3.10;2.15;;;24.70;60.00;;;;;;4508214;31;20098;-68
2022/07/25 04:48:13;;;;;;;3.38;3.00;;;24.80;60.20;;;;;;4493960;31;20133;-68
2022/07/25 04:50:38;;;;;;;4.65;2.80;;;24.70;60.20;;;;;;4508165;31;20120;-68
2022/07/25 04:53:05;;;;;;;3.88;2.80;;;24.70;60.30;;;;;;4508205;31;20524;-68
2022/07/25 04:55:31;;;;;;;3.30;2.65;;;24.70;60.20;;;;;;4508125;31;20092;-68
2022/07/25 04:57:58;;;;;;;4.55;2.80;;;24.70;60.40;;;;;;4507838;31;20073;-68
2022/07/25 05:00:24;;;;;;;4.78;3.42;;;24.70;60.40;;;;;;4508099;31;20073;-68
2022/07/25 05:02:50;;;;;;;3.38;3.08;;;24.70;60.40;;;;;;4508077;31;20561;-69
2022/07/25 05:05:16;;;;;;;4.03;3.33;;;24.70;60.40;;;;;;4507915;31;20210;-68
2022/07/25 05:07:43;;;;;;;6.05;2.90;;;24.70;60.50;;;;;;4507798;31;20092;-68
2022/07/25 05:10:09;;;;;;;6.22;3.30;;;24.70;60.50;;;;;;4507995;31;20133;-68
2022/07/25 05:12:35;;;;;;;7.95;3.47;;;24.70;60.60;;;;;;4507971;31;20230;-68
2022/07/25 05:15:02;;;;;;;6.75;3.03;;;24.70;60.70;;;;;;4507682;31;20076;-67
2022/07/25 05:17:28;;;;;;;7.13;3.30;;;24.70;60.70;;;;;;4507914;31;20139;-69
2022/07/25 05:19:54;;;;;;;8.93;3.58;;;24.70;60.70;;;;;;4508141;31;20201;-69
2022/07/25 05:22:20;;;;;;;6.43;3.80;;;24.70;61.70;;;;;;4507829;31;20420;-67
2022/07/25 05:24:45;;;;;;;4.82;3.50;;;24.70;60.90;;;;;;4493388;31;20083;-69
2022/07/25 05:27:11;;;;;;;4.68;3.15;;;24.70;60.90;;;;;;4508049;31;20076;-68
2022/07/25 05:29:37;;;;;;;3.63;3.30;;;24.70;60.90;;;;;;4507748;31;20065;-67
2022/07/25 05:32:03;;;;;;;4.10;3.70;;;24.70;60.90;;;;;;4507583;31;20166;-68
2022/07/25 05:34:29;;;;;;;3.80;3.10;;;24.70;61.00;;;;;;4493373;31;20092;-68
2022/07/25 05:36:55;;;;;;;4.70;3.30;;;24.70;61.00;;;;;;4508198;31;20056;-68
2022/07/25 05:39:21;;;;;;;6.15;3.78;;;24.70;61.00;;;;;;4511051;31;20082;-68
2022/07/25 05:41:47;;;;;;;6.00;3.97;;;24.70;61.20;;;;;;4510949;31;20088;-68
2022/07/25 05:44:13;;;;;;;4.95;3.65;;;24.70;61.40;;;;;;4510964;31;20068;-68
2022/07/25 05:46:39;;;;;;;4.65;4.15;;;24.70;61.50;;;;;;4510634;31;20080;-68
2022/07/25 05:49:05;;;;;;;9.05;3.83;;;24.70;61.40;;;;;;4510894;31;20071;-67
2022/07/25 05:51:31;;;;;;;5.45;3.90;;;24.70;61.40;;;;;;4510628;31;20049;-67
2022/07/25 05:53:57;;;;;;;4.45;4.05;;;24.70;61.50;;;;;;4510383;31;20065;-68
2022/07/25 05:56:22;;;;;;;5.85;4.03;;;24.70;61.40;;;;;;4510767;31;20081;-68
2022/07/25 05:58:48;;;;;;;6.90;3.75;;;24.70;61.40;;;;;;4510675;31;20140;-68
2022/07/25 06:01:15;;;;;;;5.32;3.65;;;24.70;61.40;;;;;;4510900;31;20129;-68
2022/07/25 06:03:41;;;;;;;7.55;4.00;;;24.70;61.40;;;;;;4510621;31;20514;-68
2022/07/25 06:06:08;;;;;;;5.03;3.72;;;24.70;61.50;;;;;;4510495;31;20079;-69
2022/07/25 06:08:35;;;;;;;5.47;4.03;;;24.70;61.50;;;;;;4510548;31;20626;-67
2022/07/25 06:11:02;;;;;;;6.20;3.75;;;24.70;61.60;;;;;;4510347;31;20429;-68
2022/07/25 06:13:28;;;;;;;5.35;4.03;;;24.70;61.60;;;;;;4510833;31;20168;-70
2022/07/25 06:15:54;;;;;;;4.75;4.22;;;24.80;61.60;;;;;;4510763;31;20075;-68
2022/07/25 06:18:20;;;;;;;5.80;4.40;;;24.80;61.70;;;;;;4510434;31;20506;-68
2022/07/25 06:20:47;;;;;;;4.97;4.25;;;24.70;61.70;;;;;;4510041;31;20128;-68
2022/07/25 06:23:14;;;;;;;5.82;4.20;;;24.80;61.70;;;;;;4510289;31;20087;-68
2022/07/25 06:25:40;;;;;;;7.35;3.90;;;24.70;61.70;;;;;;4510284;31;20084;-68
2022/07/25 06:28:05;;;;;;;8.43;4.72;;;24.80;61.80;;;;;;4510256;31;20087;-68
2022/07/25 06:30:31;;;;;;;6.03;4.68;;;24.80;61.70;;;;;;4510498;31;20088;-67
2022/07/25 06:32:57;;;;;;;5.55;3.83;;;24.80;61.70;;;;;;4510167;31;20086;-67
2022/07/25 06:35:24;;;;;;;8.48;3.90;;;24.80;61.70;;;;;;4510169;31;20092;-67
2022/07/25 06:37:50;;;;;;;7.15;4.40;;;24.80;61.80;;;;;;4510119;31;20080;-68
2022/07/25 06:40:16;;;;;;;9.52;4.40;;;24.80;61.80;;;;;;4509850;31;20079;-68
2022/07/25 06:42:43;;;;;;;7.72;4.78;;;24.80;62.00;;;;;;4510320;31;20208;-67
2022/07/25 06:45:11;;;;;;;7.35;4.70;;;24.80;62.00;;;;;;4510406;31;20103;-70
2022/07/25 06:47:39;;;;;;;7.57;5.20;;;24.80;62.00;;;;;;4509724;31;20084;-68
2022/07/25 06:50:07;;;;;;;6.82;4.90;;;24.80;62.00;;;;;;4509898;31;20088;-68
2022/07/25 06:52:33;;;;;;;5.10;4.57;;;24.80;61.90;;;;;;4510116;31;20064;-69
2022/07/25 06:54:58;;;;;;;8.57;4.97;;;24.80;61.80;;;;;;4509833;31;20434;-68
2022/07/25 06:57:24;;;;;;;10.68;5.00;;;24.90;61.80;;;;;;4510235;31;20222;-68
2022/07/25 06:59:50;;;;;;;8.73;4.93;;;24.90;61.70;;;;;;4510146;31;20218;-66
2022/07/25 07:02:16;;;;;;;8.38;5.18;;;24.80;61.90;;;;;;4509745;31;20413;-66
2022/07/25 07:04:42;;;;;;;8.48;4.97;;;24.90;62.00;;;;;;4509648;31;20088;-67
2022/07/25 07:07:07;;;;;;;7.20;5.03;;;24.90;62.20;;;;;;4509477;31;20079;-66
2022/07/25 07:09:33;;;;;;;7.10;5.45;;;24.80;62.20;;;;;;4509550;31;20076;-68
2022/07/25 07:11:59;;;;;;;6.40;4.70;;;24.90;62.40;;;;;;4509887;31;20077;-68
2022/07/25 07:14:25;;;;;;;13.20;5.25;;;24.90;62.30;;;;;;4509864;31;20528;-67
2022/07/25 07:16:51;;;;;;;8.05;5.20;;;24.90;62.30;;;;;;4509325;31;20072;-67
2022/07/25 07:19:16;;;;;;;6.70;4.88;;;24.90;62.60;;;;;;4509698;31;20078;-69
2022/07/25 07:21:42;;;;;;;11.80;5.38;;;24.90;62.70;;;;;;4509576;31;20504;-69
2022/07/25 07:24:09;;;;;;;14.35;5.63;;;24.90;62.90;;;;;;4509879;31;20101;-67
2022/07/25 07:26:34;;;;;;;12.45;5.05;;;24.90;62.90;;;;;;4509163;31;20080;-69
2022/07/25 07:29:01;;;;;;;12.75;5.70;;;24.90;62.90;;;;;;4509376;31;20061;-66
2022/07/25 07:31:27;;;;;;;9.70;5.38;;;25.00;63.00;;;;;;4509229;31;20092;-68
2022/07/25 07:33:53;;;;;;;9.45;5.90;;;25.00;62.90;;;;;;4509085;31;20124;-72
2022/07/25 07:36:20;;;;;;;12.63;5.10;;;25.10;62.90;;;;;;4508141;31;20211;-67
2022/07/25 07:38:47;;;;;;;14.77;5.57;;;25.40;62.70;;;;;;4509432;31;20095;-67
2022/07/25 07:41:13;;;;;;;13.60;5.90;;;25.50;62.10;;;;;;4494947;31;20087;-67
2022/07/25 07:43:40;;;;;;;11.15;5.07;;;25.60;61.90;;;;;;4508860;31;20532;-67
2022/07/25 07:46:06;;;;;;;9.80;5.28;;;25.60;61.80;;;;;;4509240;31;20165;-67
2022/07/25 07:48:33;;;;;;;12.30;5.43;;;25.70;61.60;;;;;;4494744;31;20091;-66
2022/07/25 07:51:00;;;;;;;9.35;5.65;;;25.70;61.40;;;;;;4509097;31;20144;-67
2022/07/25 07:56:13;;;;;;;14.20;5.30;;;25.60;61.70;;;;;;4509010;31;20088;-67
2022/07/25 07:58:44;;;;;;;10.68;4.82;;;25.60;62.10;;;;;;4508930;31;20072;-69
2022/07/25 08:01:10;;;;;;;8.52;4.93;;;25.50;61.80;;;;;;4480809;31;20084;-67
2022/07/25 08:03:36;;;;;;;10.20;4.90;;;25.50;61.90;;;;;;4508855;31;20094;-67
2022/07/25 08:06:03;;;;;;;10.07;4.55;;;25.50;62.00;;;;;;4508879;31;20198;-67
2022/07/25 08:08:29;;;;;;;7.78;4.82;;;25.50;62.10;;;;;;4508629;31;20123;-68
2022/07/25 08:10:57;;;;;;;6.78;4.40;;;25.50;62.00;;;;;;4508625;31;20529;-66
2022/07/25 08:13:30;;;;;;;9.10;4.43;;;25.40;62.00;;;;;;4508946;31;20157;-67
2022/07/25 08:15:59;;;;;;;7.30;4.30;;;25.40;62.10;;;;;;4508685;31;20079;-67
2022/07/25 08:18:26;;;;;;;7.10;4.07;;;25.40;62.20;;;;;;4508287;31;20082;-68
2022/07/25 08:20:52;;;;;;;9.65;4.13;;;25.40;62.20;;;;;;4508459;31;20159;-66
2022/07/25 08:23:18;;;;;;;6.88;4.45;;;25.40;62.20;;;;;;4508528;31;20092;-67
2022/07/25 08:25:46;;;;;;;7.30;4.30;;;25.30;62.20;;;;;;4507906;31;20069;-67
2022/07/25 08:28:12;;;;;;;10.15;4.35;;;25.30;62.20;;;;;;4494146;31;20425;-67
2022/07/25 08:30:39;;;;;;;6.60;3.95;;;25.30;62.00;;;;;;4508472;31;20134;-67
2022/07/25 08:33:09;;;;;;;9.65;3.97;;;25.30;61.90;;;;;;4508308;31;20080;-67
2022/07/25 08:35:36;;;;;;;7.43;3.85;;;25.30;61.90;;;;;;4508340;31;20086;-67
2022/07/25 08:38:03;;;;;;;7.38;4.10;;;25.30;61.90;;;;;;4508582;31;20080;-67
2022/07/25 08:40:30;;;;;;;6.88;3.67;;;25.30;61.80;;;;;;4507974;31;20112;-68
2022/07/25 08:42:57;;;;;;;8.43;3.88;;;25.30;61.70;;;;;;4508316;31;20216;-66
2022/07/25 08:45:25;;;;;;;6.82;3.60;;;25.30;61.70;;;;;;4508521;31;20124;-68
2022/07/25 08:47:53;;;;;;;7.95;3.67;;;25.30;61.70;;;;;;4508157;31;20093;-66
2022/07/25 08:50:23;;;;;;;7.20;3.60;;;25.30;61.70;;;;;;4508209;31;20429;-66
2022/07/25 08:52:50;;;;;;;9.85;3.80;;;25.30;62.60;;;;;;4507893;31;20264;-66
2022/07/25 08:55:21;;;;;;;7.85;3.78;;;25.30;61.70;;;;;;4508214;31;20417;-67
2022/07/25 08:57:50;;;;;;;8.18;3.75;;;25.30;61.70;;;;;;4508495;31;20068;-67
2022/07/25 09:00:18;;;;;;;6.13;4.18;;;25.30;61.70;;;;;;4508114;31;20487;-67
2022/07/25 09:02:54;;;;;;;9.82;3.70;;;25.20;61.80;;;;;;4507969;31;20533;-67
2022/07/25 09:05:22;;;;;;;9.48;4.72;;;25.30;62.00;;;;;;4508063;31;20092;-67
2022/07/25 09:07:49;;;;;;;8.18;4.38;;;25.20;61.90;;;;;;4507632;31;20155;-67
2022/07/25 09:10:26;;;;;;;9.77;4.93;;;25.20;62.00;;;;;;4508045;31;20422;-67
2022/07/25 09:12:58;;;;;;;11.82;5.80;;;25.20;61.90;;;;;;4507991;31;20065;-67
2022/07/25 09:15:33;;;;;;;15.27;6.00;;;25.20;62.00;;;;;;4507661;31;20080;-66
2022/07/25 09:18:05;;;;;;;13.27;5.40;;;25.20;62.00;;;;;;4508584;31;20553;-67
2022/07/25 09:20:40;;;;;;;17.00;6.45;;;25.20;62.10;;;;;;4507893;31;20076;-67
2022/07/25 09:23:06;;;;;;;18.08;7.32;;;25.20;62.30;;;;;;4507805;31;20087;-66
2022/07/25 09:25:32;;;;;;;18.60;8.10;;;25.20;62.60;;;;;;4507800;31;20084;-67
2022/07/25 09:28:16;;;;;;;22.90;7.97;;;25.20;62.90;;;;;;4507480;31;20079;-67
2022/07/25 09:30:55;;;;;;;22.88;9.57;;;25.20;63.10;;;;;;4507683;31;20161;-67
2022/07/25 09:33:26;;;;;;;21.98;7.93;;;25.20;63.10;;;;;;4507571;31;20080;-66
2022/07/25 09:35:53;;;;;;;19.73;8.30;;;25.20;63.10;;;;;;4493407;31;20630;-68
2022/07/25 09:38:20;;;;;;;21.88;9.35;;;25.20;63.20;;;;;;4507721;31;20161;-68
2022/07/25 09:40:55;;;;;;;18.08;8.82;;;25.20;63.00;;;;;;4507744;31;20245;-67
2022/07/25 09:43:22;;;;;;;18.42;8.70;;;25.20;62.90;;;;;;4507725;31;20087;-67
2022/07/25 09:45:49;;;;;;;18.92;9.20;;;25.20;62.90;;;;;;4507652;31;20117;-67
2022/07/25 09:48:19;;;;;;;21.95;8.75;;;25.20;62.90;;;;;;4507730;31;20080;-67
2022/07/25 09:50:46;;;;;;;23.05;9.00;;;25.20;62.90;;;;;;4507534;31;20087;-67
2022/07/25 09:53:12;;;;;;;18.75;8.32;;;25.20;63.00;;;;;;4507501;31;20517;-68
2022/07/25 09:55:39;;;;;;;20.60;8.50;;;25.20;63.00;;;;;;4493317;31;20087;-68
2022/07/25 09:58:05;;;;;;;23.73;8.65;;;25.20;62.90;;;;;;4507482;31;20092;-67
2022/07/25 10:00:31;;;;;;;22.55;8.50;;;25.20;63.00;;;;;;4507428;31;20076;-68
2022/07/25 10:03:24;;;;;;;15.10;7.82;;;25.30;63.00;;;;;;4507481;31;20092;-67
2022/07/25 10:06:15;;;;;;;20.17;7.78;;;25.30;63.10;;;;;;4492825;31;20096;-67
2022/07/25 10:08:42;;;;;;;20.63;7.97;;;25.30;63.10;;;;;;4493059;31;20092;-68
2022/07/25 10:11:23;;;;;;;19.15;8.02;;;25.30;63.00;;;;;;4507056;31;20089;-67
2022/07/25 10:13:49;;;;;;;14.45;6.95;;;25.30;62.90;;;;;;4507369;31;20175;-67
2022/07/25 10:16:23;;;;;;;16.92;7.32;;;25.20;62.70;;;;;;4507374;31;20582;-66
2022/07/25 10:18:50;;;;;;;16.25;6.78;;;25.30;62.70;;;;;;4507362;31;20119;-66
2022/07/25 10:21:16;;;;;;;14.75;6.30;;;25.20;62.60;;;;;;4507502;31;20143;-67
2022/07/25 10:23:45;;;;;;;12.82;6.43;;;25.20;62.70;;;;;;4508700;31;20138;-67
2022/07/25 10:26:18;;;;;;;14.93;5.93;;;25.20;62.90;;;;;;4510575;31;20085;-67
2022/07/25 10:28:52;;;;;;;12.90;5.57;;;25.30;62.90;;;;;;4510379;31;20072;-67
2022/07/25 10:31:26;;;;;;;9.60;4.82;;;25.30;62.80;;;;;;4510044;31;20077;-67
2022/07/25 10:33:53;;;;;;;12.32;5.43;;;25.20;62.80;;;;;;4510277;31;20091;-67
2022/07/25 10:36:20;;;;;;;14.35;5.30;;;25.30;63.00;;;;;;4509798;31;20557;-67
2022/07/25 10:38:49;;;;;;;11.27;4.93;;;25.30;63.10;;;;;;4509823;31;20085;-67
2022/07/25 10:41:15;;;;;;;12.80;5.00;;;25.30;63.20;;;;;;4495904;31;20214;-67
2022/07/25 10:43:44;;;;;;;7.57;4.28;;;25.30;63.10;;;;;;4510219;31;20170;-68
2022/07/25 10:46:17;;;;;;;20.50;4.78;;;25.30;63.10;;;;;;4510041;31;20461;-67
2022/07/25 10:48:43;;;;;;;12.75;4.20;;;25.30;63.20;;;;;;4509815;31;20508;-67
2022/07/25 10:51:12;;;;;;;12.88;4.93;;;25.30;63.10;;;;;;4509956;31;20096;-66
2022/07/25 10:53:48;;;;;;;7.40;4.38;;;25.30;63.30;;;;;;4509890;31;20091;-66
2022/07/25 10:56:19;;;;;;;10.15;4.28;;;25.30;63.60;;;;;;4509781;31;20092;-67
2022/07/25 10:58:53;;;;;;;11.65;4.97;;;25.30;63.30;;;;;;4509911;31;20181;-66
2022/07/25 11:01:23;;;;;;;10.60;4.30;;;25.30;63.50;;;;;;4509969;31;20153;-67
2022/07/25 11:03:51;;;;;;;9.80;4.78;;;25.30;63.40;;;;;;4509833;31;20087;-66
2022/07/25 11:06:38;;;;;;;8.73;3.92;;;25.40;63.60;;;;;;4509678;31;20089;-67
2022/07/25 11:09:14;;;;;;;10.82;4.10;;;25.40;63.60;;;;;;4510087;31;20073;-66
2022/07/25 11:11:47;;;;;;;8.50;3.63;;;25.40;63.60;;;;;;4509802;31;20113;-66
2022/07/25 11:14:31;;;;;;;9.68;3.85;;;25.40;63.50;;;;;;4509775;31;20091;-66
2022/07/25 11:17:17;;;;;;;9.43;3.55;;;25.40;63.50;;;;;;4509765;31;20512;-67
2022/07/25 11:19:51;;;;;;;13.82;4.25;;;25.40;63.40;;;;;;4495153;31;20085;-67
2022/07/25 11:22:17;;;;;;;8.18;3.40;;;25.40;63.50;;;;;;4509398;31;20502;-67
2022/07/25 11:24:45;;;;;;;9.93;3.83;;;25.40;63.40;;;;;;4509598;31;20081;-67
2022/07/25 11:27:20;;;;;;;10.38;3.30;;;25.50;63.50;;;;;;4508125;31;20136;-68
2022/07/25 11:29:45;;;;;;;5.18;3.03;;;25.50;63.40;;;;;;4509437;31;20179;-67
2022/07/25 11:32:12;;;;;;;7.30;2.85;;;25.40;63.20;;;;;;4509106;31;20278;-68
2022/07/25 11:34:42;;;;;;;7.88;3.03;;;25.40;63.30;;;;;;4508366;31;20241;-67
2022/07/25 11:37:10;;;;;;;8.18;3.03;;;25.50;63.30;;;;;;4509849;31;20169;-67
2022/07/25 11:39:38;;;;;;;8.10;3.55;;;25.40;63.10;;;;;;4508899;31;20077;-67
2022/07/25 11:42:15;;;;;;;7.80;3.10;;;25.50;63.20;;;;;;4509146;31;20096;-68
2022/07/25 11:44:45;;;;;;;6.03;3.15;;;25.50;63.20;;;;;;4509138;31;20088;-68
2022/07/25 11:47:41;;;;;;;6.50;2.80;;;25.50;63.10;;;;;;4509679;31;20077;-67
2022/07/25 11:50:09;;;;;;;7.75;2.80;;;25.40;63.10;;;;;;4498456;31;20523;-68
2022/07/25 11:52:37;;;;;;;7.43;2.80;;;25.40;63.00;;;;;;4509091;31;20134;-67
2022/07/25 11:55:04;;;;;;;7.40;2.97;;;25.50;63.10;;;;;;4508578;31;20072;-67
2022/07/25 11:57:35;;;;;;;8.50;2.78;;;25.50;63.10;;;;;;4508476;31;20738;-67
2022/07/25 12:00:06;;;;;;;5.22;2.88;;;25.50;63.10;;;;;;4509013;31;20072;-68
2022/07/25 12:02:36;;;;;;;5.53;2.63;;;25.50;63.10;;;;;;4509032;31;20095;-67
2022/07/25 12:05:03;;;;;;;4.75;2.47;;;25.50;63.10;;;;;;4507932;31;20073;-68
2022/07/25 12:07:38;;;;;;;7.13;2.83;;;25.50;63.00;;;;;;4494340;31;20506;-68
2022/07/25 12:10:10;;;;;;;5.75;2.70;;;25.50;63.10;;;;;;4508550;31;20076;-68
2022/07/25 12:12:54;;;;;;;6.30;2.55;;;25.50;63.00;;;;;;4508725;31;20490;-68
2022/07/25 12:15:32;;;;;;;7.97;2.90;;;25.50;63.00;;;;;;4509302;31;20105;-67
2022/07/25 12:17:58;;;;;;;7.72;2.67;;;25.60;63.00;;;;;;4508836;31;20230;-68
2022/07/25 12:20:30;;;;;;;9.15;2.65;;;25.50;63.80;;;;;;4508911;31;20095;-67
2022/07/25 12:22:59;;;;;;;9.68;2.42;;;25.50;62.80;;;;;;4508742;31;20073;-67
2022/07/25 12:25:26;;;;;;;5.63;2.60;;;25.50;62.70;;;;;;4508416;31;20410;-68
2022/07/25 12:27:52;;;;;;;7.82;3.03;;;25.50;62.70;;;;;;4508099;31;20080;-68
2022/07/25 12:30:18;;;;;;;5.93;2.40;;;25.50;62.80;;;;;;4508119;31;20095;-67
2022/07/25 12:32:44;;;;;;;4.97;2.47;;;25.50;62.70;;;;;;4493857;31;20487;-67
2022/07/25 12:35:11;;;;;;;6.88;2.58;;;25.60;62.80;;;;;;4508219;31;20492;-68
2022/07/25 12:37:39;;;;;;;5.47;2.15;;;25.60;62.80;;;;;;4507886;31;20149;-67
2022/07/25 12:40:05;;;;;;;5.45;2.67;;;25.60;62.80;;;;;;4508399;31;20126;-67
2022/07/25 12:42:31;;;;;;;8.85;2.50;;;25.60;62.70;;;;;;4507936;31;20083;-67
2022/07/25 12:44:57;;;;;;;4.20;2.30;;;25.60;62.70;;;;;;4507907;31;20084;-67
2022/07/25 12:47:24;;;;;;;5.93;2.35;;;25.60;62.60;;;;;;4507817;31;20230;-67
2022/07/25 12:49:50;;;;;;;6.18;2.30;;;25.60;62.50;;;;;;4508009;31;20181;-68